Time;durP1;ratioP1;P1;durP2;ratioP2;P2;SDS_P1;SDS_P2;PMS_P1;PMS_P2;Temp;Humidity;BMP_temperature;BMP_pressure;BME280_temperature;BME280_humidity;BME280_pressure;Samples;Min_cycle;Max_cycle;Signal;HPM_P1;HPM_P2
2022/08/07 00:00:54;;;;;;;2.23;1.70;;;;;;;;;;5090859;28;20483;-75
2022/08/07 00:03:24;;;;;;;1.67;1.57;;;;;;;;;;5090184;28;20452;-76
2022/08/07 00:05:52;;;;;;;2.20;2.10;;;;;;;;;;5090631;28;20508;-77
2022/08/07 00:08:19;;;;;;;1.70;1.60;;;;;;;;;;5090656;28;20448;-76
2022/08/07 00:10:46;;;;;;;2.30;1.83;;;;;;;;;;5077782;28;20464;-76
2022/08/07 00:13:13;;;;;;;1.60;1.30;;;;;;;;;;5069998;28;20505;-76
2022/08/07 00:15:40;;;;;;;1.57;1.47;;;;;;;;;;5070184;28;20992;-76
2022/08/07 00:18:08;;;;;;;1.60;1.50;;;;;;;;;;5070335;28;20449;-76
2022/08/07 00:20:37;;;;;;;2.30;1.70;;;;;;;;;;5070137;28;20510;-76
2022/08/07 00:23:05;;;;;;;1.87;1.77;;;;;;;;;;5070018;28;20832;-75
2022/08/07 00:25:32;;;;;;;2.10;1.70;;;;;;;;;;5070343;28;20582;-76
2022/08/07 00:28:00;;;;;;;1.70;1.60;;;;;;;;;;5070608;28;20440;-75
2022/08/07 00:30:27;;;;;;;1.93;1.60;;;;;;;;;;5089434;28;20444;-75
2022/08/07 00:32:54;;;;;;;1.37;1.30;;;;;;;;;;5072164;28;20846;-76
2022/08/07 00:35:22;;;;;;;2.00;1.80;;;;;;;;;;5070426;28;20908;-76
2022/08/07 00:37:50;;;;;;;2.00;1.90;;;;;;;;;;5069155;28;20950;-75
2022/08/07 00:40:17;;;;;;;1.90;1.80;;;;;;;;;;5069900;28;20538;-76
2022/08/07 00:42:44;;;;;;;2.10;2.00;;;;;;;;;;5069437;28;20444;-76
2022/08/07 00:45:11;;;;;;;2.40;2.20;;;;;;;;;;5069687;28;20567;-76
2022/08/07 00:47:38;;;;;;;1.30;1.30;;;;;;;;;;5073226;28;20943;-76
2022/08/07 00:50:06;;;;;;;1.80;1.70;;;;;;;;;;5073699;28;20909;-75
2022/08/07 00:52:33;;;;;;;2.60;1.80;;;;;;;;;;5073435;28;20452;-76
2022/08/07 00:55:02;;;;;;;1.83;1.73;;;;;;;;;;5073537;28;20893;-76
2022/08/07 00:57:29;;;;;;;1.50;1.40;;;;;;;;;;5073500;28;20536;-75
2022/08/07 00:59:56;;;;;;;2.10;1.97;;;;;;;;;;5073315;28;20480;-76
2022/08/07 01:02:24;;;;;;;2.27;1.97;;;;;;;;;;5073695;28;20449;-76
2022/08/07 01:04:51;;;;;;;3.60;1.83;;;;;;;;;;5073115;28;20555;-76
2022/08/07 01:07:19;;;;;;;2.63;1.70;;;;;;;;;;5073537;28;20456;-76
2022/08/07 01:09:46;;;;;;;4.00;2.10;;;;;;;;;;5077481;28;20489;-75
2022/08/07 01:12:15;;;;;;;1.80;1.60;;;;;;;;;;5093607;28;20883;-76
2022/08/07 01:14:42;;;;;;;2.23;1.60;;;;;;;;;;5093171;28;20451;-76
2022/08/07 01:17:09;;;;;;;1.83;1.70;;;;;;;;;;5093802;28;20450;-75
2022/08/07 01:19:37;;;;;;;1.70;1.60;;;;;;;;;;5093073;28;20845;-76
2022/08/07 01:22:06;;;;;;;1.80;1.70;;;;;;;;;;5093732;28;20439;-76
2022/08/07 01:24:33;;;;;;;3.70;1.70;;;;;;;;;;5093005;28;21138;-76
2022/08/07 01:27:00;;;;;;;1.70;1.60;;;;;;;;;;5094077;28;20440;-76
2022/08/07 01:29:28;;;;;;;2.50;1.60;;;;;;;;;;5093780;28;20447;-76
2022/08/07 01:31:56;;;;;;;1.70;1.60;;;;;;;;;;5093635;28;20493;-76
2022/08/07 01:34:23;;;;;;;1.83;1.70;;;;;;;;;;5092886;28;20456;-75
2022/08/07 01:36:50;;;;;;;4.40;1.80;;;;;;;;;;5093154;28;20444;-75
2022/08/07 01:39:18;;;;;;;1.87;1.77;;;;;;;;;;5093232;28;20444;-75
2022/08/07 01:41:46;;;;;;;2.60;1.70;;;;;;;;;;5092842;28;20532;-75
2022/08/07 01:44:14;;;;;;;1.90;1.70;;;;;;;;;;5092463;28;20546;-76
2022/08/07 01:46:41;;;;;;;2.87;1.70;;;;;;;;;;5093711;28;20447;-76
2022/08/07 01:49:08;;;;;;;2.20;2.00;;;;;;;;;;5093541;28;20500;-75
2022/08/07 01:51:36;;;;;;;1.80;1.70;;;;;;;;;;5092652;28;20822;-75
2022/08/07 01:54:05;;;;;;;1.80;1.70;;;;;;;;;;5091938;28;20547;-76
2022/08/07 01:56:37;;;;;;;2.93;2.07;;;;;;;;;;5092646;28;20451;-76
2022/08/07 01:59:06;;;;;;;2.17;2.00;;;;;;;;;;5092343;28;20455;-76
2022/08/07 02:01:35;;;;;;;2.50;2.00;;;;;;;;;;5092665;28;20468;-76
2022/08/07 02:04:08;;;;;;;1.80;1.70;;;;;;;;;;5092255;28;20506;-76
2022/08/07 02:06:36;;;;;;;2.03;1.93;;;;;;;;;;5092507;28;20854;-76
2022/08/07 02:09:05;;;;;;;2.97;1.70;;;;;;;;;;5092788;28;20497;-76
2022/08/07 02:11:35;;;;;;;2.57;2.37;;;;;;;;;;5074992;28;20498;-75
2022/08/07 02:14:03;;;;;;;2.00;1.80;;;;;;;;;;5072903;28;20925;-76
2022/08/07 02:16:30;;;;;;;1.73;1.63;;;;;;;;;;5071927;28;20912;-76
2022/08/07 02:18:57;;;;;;;2.13;2.03;;;;;;;;;;5071908;28;20436;-75
2022/08/07 02:21:25;;;;;;;1.80;1.70;;;;;;;;;;5071792;28;20854;-75
2022/08/07 02:23:52;;;;;;;2.30;1.80;;;;;;;;;;5071385;28;20972;-76
2022/08/07 02:26:19;;;;;;;2.50;1.87;;;;;;;;;;5071988;28;20456;-75
2022/08/07 02:28:48;;;;;;;2.00;1.90;;;;;;;;;;5072060;28;20553;-75
2022/08/07 02:31:15;;;;;;;2.30;1.90;;;;;;;;;;5071596;28;20441;-77
2022/08/07 02:33:43;;;;;;;1.93;1.70;;;;;;;;;;5070993;28;20501;-75
2022/08/07 02:36:10;;;;;;;1.90;1.80;;;;;;;;;;5071695;28;20445;-75
2022/08/07 02:38:38;;;;;;;1.97;1.87;;;;;;;;;;5071783;28;20449;-76
2022/08/07 02:41:06;;;;;;;1.83;1.70;;;;;;;;;;5071646;28;20510;-76
2022/08/07 02:43:34;;;;;;;1.70;1.67;;;;;;;;;;5071286;28;20444;-76
2022/08/07 02:46:02;;;;;;;1.63;1.40;;;;;;;;;;5071505;28;20866;-76
2022/08/07 02:48:29;;;;;;;1.90;1.80;;;;;;;;;;5071927;28;20932;-76
2022/08/07 02:50:57;;;;;;;1.70;1.60;;;;;;;;;;5071839;28;20441;-75
2022/08/07 02:53:25;;;;;;;2.13;1.90;;;;;;;;;;5071469;28;20447;-76
2022/08/07 02:55:53;;;;;;;1.77;1.67;;;;;;;;;;5071428;28;20837;-75
2022/08/07 02:58:21;;;;;;;1.90;1.80;;;;;;;;;;5071191;28;20490;-76
2022/08/07 03:00:49;;;;;;;1.97;1.87;;;;;;;;;;5071059;28;20730;-76
2022/08/07 03:03:19;;;;;;;4.80;2.00;;;;;;;;;;5070893;28;20456;-75
2022/08/07 03:05:46;;;;;;;2.83;1.50;;;;;;;;;;5071711;28;20833;-76
2022/08/07 03:08:14;;;;;;;2.43;1.77;;;;;;;;;;5071235;28;20453;-75
2022/08/07 03:10:41;;;;;;;2.00;1.77;;;;;;;;;;5082588;28;20451;-75
2022/08/07 03:13:09;;;;;;;2.83;1.67;;;;;;;;;;5090988;28;20451;-75
2022/08/07 03:15:36;;;;;;;2.00;1.90;;;;;;;;;;5091026;28;20471;-75
2022/08/07 03:18:03;;;;;;;1.77;1.67;;;;;;;;;;5091327;28;20443;-75
2022/08/07 03:20:31;;;;;;;2.10;1.90;;;;;;;;;;5099285;28;20529;-75
2022/08/07 03:22:59;;;;;;;2.03;1.80;;;;;;;;;;5105706;28;20444;-75
2022/08/07 03:25:27;;;;;;;2.20;2.10;;;;;;;;;;5104993;28;20460;-76
2022/08/07 03:27:55;;;;;;;1.90;1.80;;;;;;;;;;5106911;28;20435;-75
2022/08/07 03:30:23;;;;;;;1.80;1.70;;;;;;;;;;5093670;28;20862;-75
2022/08/07 03:32:52;;;;;;;3.50;1.80;;;;;;;;;;5090606;28;20447;-75
2022/08/07 03:35:22;;;;;;;1.83;1.50;;;;;;;;;;5091002;28;20456;-75
2022/08/07 03:37:53;;;;;;;2.33;1.80;;;;;;;;;;5090947;28;20497;-76
2022/08/07 03:40:21;;;;;;;1.57;1.57;;;;;;;;;;5090670;28;20498;-76
2022/08/07 03:42:48;;;;;;;2.20;2.00;;;;;;;;;;5090270;28;20741;-76
2022/08/07 03:45:15;;;;;;;1.90;1.80;;;;;;;;;;5090563;28;20517;-75
2022/08/07 03:47:43;;;;;;;2.70;2.10;;;;;;;;;;5090721;28;20493;-76
2022/08/07 03:50:10;;;;;;;3.13;1.77;;;;;;;;;;5090494;28;20471;-75
2022/08/07 03:52:37;;;;;;;2.50;1.77;;;;;;;;;;5090288;28;20499;-75
2022/08/07 03:55:06;;;;;;;3.33;2.10;;;;;;;;;;5089919;28;20537;-76
2022/08/07 03:57:34;;;;;;;1.90;1.80;;;;;;;;;;5090636;28;20493;-75
2022/08/07 04:00:01;;;;;;;2.40;1.80;;;;;;;;;;5090488;28;20580;-75
2022/08/07 04:02:28;;;;;;;2.23;2.00;;;;;;;;;;5090247;28;20638;-75
2022/08/07 04:04:55;;;;;;;1.90;1.80;;;;;;;;;;5089978;28;20529;-75
2022/08/07 04:07:22;;;;;;;2.03;1.90;;;;;;;;;;5090377;28;20452;-76
2022/08/07 04:09:50;;;;;;;1.93;1.83;;;;;;;;;;5085613;28;20449;-75
2022/08/07 04:12:19;;;;;;;2.80;1.77;;;;;;;;;;5070041;28;20490;-75
2022/08/07 04:14:46;;;;;;;1.77;1.67;;;;;;;;;;5070024;28;20745;-75
2022/08/07 04:17:14;;;;;;;2.13;2.03;;;;;;;;;;5069951;28;20444;-75
2022/08/07 04:19:42;;;;;;;1.97;1.87;;;;;;;;;;5069755;28;20487;-76
2022/08/07 04:22:09;;;;;;;1.80;1.70;;;;;;;;;;5068724;28;20476;-76
2022/08/07 04:24:36;;;;;;;1.93;1.83;;;;;;;;;;5069601;28;20472;-76
2022/08/07 04:27:04;;;;;;;2.10;2.00;;;;;;;;;;5069798;28;20457;-76
2022/08/07 04:29:32;;;;;;;3.10;2.40;;;;;;;;;;5069980;28;20441;-76
2022/08/07 04:31:59;;;;;;;2.03;1.93;;;;;;;;;;5069776;28;20437;-75
2022/08/07 04:34:27;;;;;;;2.30;2.20;;;;;;;;;;5069446;28;20456;-76
2022/08/07 04:36:54;;;;;;;2.83;1.80;;;;;;;;;;5069555;28;20453;-75
2022/08/07 04:39:21;;;;;;;2.33;2.23;;;;;;;;;;5069799;28;20445;-76
2022/08/07 04:41:48;;;;;;;2.30;2.20;;;;;;;;;;5080028;28;20552;-76
2022/08/07 04:44:15;;;;;;;2.13;2.03;;;;;;;;;;5089552;28;20463;-75
2022/08/07 04:46:46;;;;;;;2.73;2.53;;;;;;;;;;5089616;28;20513;-75
2022/08/07 04:49:16;;;;;;;2.20;2.10;;;;;;;;;;5089702;28;20440;-75
2022/08/07 04:51:47;;;;;;;2.37;2.27;;;;;;;;;;5089951;28;20447;-76
2022/08/07 04:54:17;;;;;;;2.37;2.27;;;;;;;;;;5091210;28;20524;-75
2022/08/07 04:56:46;;;;;;;2.50;2.30;;;;;;;;;;5092282;28;20947;-75
2022/08/07 04:59:16;;;;;;;2.90;2.37;;;;;;;;;;5090185;28;20447;-75
2022/08/07 05:01:47;;;;;;;2.23;2.03;;;;;;;;;;5089252;28;20471;-75
2022/08/07 05:04:16;;;;;;;3.30;3.10;;;;;;;;;;5089591;28;20877;-76
2022/08/07 05:06:47;;;;;;;2.67;2.47;;;;;;;;;;5089762;28;20856;-76
2022/08/07 05:09:20;;;;;;;2.80;2.37;;;;;;;;;;5089564;28;21026;-76
2022/08/07 05:11:50;;;;;;;2.30;2.20;;;;;;;;;;5069490;28;20463;-76
2022/08/07 05:14:19;;;;;;;2.50;2.40;;;;;;;;;;5069343;28;20533;-76
2022/08/07 05:16:49;;;;;;;3.63;2.70;;;;;;;;;;5073414;28;20432;-76
2022/08/07 05:19:18;;;;;;;2.67;2.50;;;;;;;;;;5073118;28;20457;-76
2022/08/07 05:21:49;;;;;;;2.70;2.50;;;;;;;;;;5069331;28;20480;-76
2022/08/07 05:24:17;;;;;;;3.03;2.83;;;;;;;;;;5069313;28;20469;-75
2022/08/07 05:26:45;;;;;;;3.70;3.40;;;;;;;;;;5069143;28;20494;-75
2022/08/07 05:29:14;;;;;;;3.00;2.83;;;;;;;;;;5069379;28;20502;-75
2022/08/07 05:31:42;;;;;;;3.10;2.90;;;;;;;;;;5069244;28;20447;-76
2022/08/07 05:34:12;;;;;;;3.33;3.03;;;;;;;;;;5072676;28;20464;-76
2022/08/07 05:36:39;;;;;;;6.73;3.27;;;;;;;;;;5072876;28;20449;-75
2022/08/07 05:39:07;;;;;;;29.77;3.87;;;;;;;;;;5072895;28;20452;-76
2022/08/07 05:41:34;;;;;;;3.10;2.90;;;;;;;;;;5072914;28;20573;-76
2022/08/07 05:44:02;;;;;;;2.93;2.83;;;;;;;;;;5072814;28;20518;-76
2022/08/07 05:46:29;;;;;;;3.97;3.47;;;;;;;;;;5072441;28;20849;-75
2022/08/07 05:48:56;;;;;;;3.10;2.90;;;;;;;;;;5090113;28;20444;-75
2022/08/07 05:51:24;;;;;;;3.33;3.03;;;;;;;;;;5092913;28;20537;-76
2022/08/07 05:53:51;;;;;;;4.23;3.93;;;;;;;;;;5092359;28;20504;-75
2022/08/07 05:56:21;;;;;;;3.67;3.47;;;;;;;;;;5092780;28;20435;-75
2022/08/07 05:58:48;;;;;;;3.90;3.60;;;;;;;;;;5092801;28;20451;-76
2022/08/07 06:01:16;;;;;;;4.10;3.70;;;;;;;;;;5092698;28;20447;-76
2022/08/07 06:03:44;;;;;;;3.70;3.50;;;;;;;;;;5092393;28;20463;-76
2022/08/07 06:06:12;;;;;;;3.50;3.30;;;;;;;;;;5092432;28;20859;-75
2022/08/07 06:08:42;;;;;;;5.00;4.00;;;;;;;;;;5094209;28;20452;-76
2022/08/07 06:11:09;;;;;;;4.63;4.23;;;;;;;;;;5094390;28;20496;-75
2022/08/07 06:13:37;;;;;;;4.20;3.90;;;;;;;;;;5092422;28;20440;-76
2022/08/07 06:16:04;;;;;;;4.20;3.90;;;;;;;;;;5092423;28;20525;-75
2022/08/07 06:18:32;;;;;;;5.17;3.50;;;;;;;;;;5092447;28;20918;-76
2022/08/07 06:21:00;;;;;;;4.13;3.83;;;;;;;;;;5090173;28;20885;-76
2022/08/07 06:23:27;;;;;;;4.10;3.80;;;;;;;;;;5089790;28;20838;-76
2022/08/07 06:25:55;;;;;;;3.87;3.67;;;;;;;;;;5083221;28;20501;-76
2022/08/07 06:28:23;;;;;;;4.00;3.70;;;;;;;;;;5092662;28;20440;-76
2022/08/07 06:30:50;;;;;;;4.10;3.80;;;;;;;;;;5092482;28;20485;-75
2022/08/07 06:33:18;;;;;;;4.47;4.17;;;;;;;;;;5091906;28;20957;-76
2022/08/07 06:35:45;;;;;;;4.57;4.27;;;;;;;;;;5092379;28;20463;-75
2022/08/07 06:38:12;;;;;;;5.03;4.23;;;;;;;;;;5092399;28;20461;-76
2022/08/07 06:40:41;;;;;;;4.23;3.83;;;;;;;;;;5077833;28;20445;-76
2022/08/07 06:43:10;;;;;;;4.40;4.10;;;;;;;;;;5074946;28;20500;-75
2022/08/07 06:45:37;;;;;;;4.20;3.90;;;;;;;;;;5090083;28;20468;-76
2022/08/07 06:48:05;;;;;;;5.00;4.60;;;;;;;;;;5091663;28;20432;-76
2022/08/07 06:50:33;;;;;;;5.23;3.83;;;;;;;;;;5091725;28;20443;-76
2022/08/07 06:53:01;;;;;;;5.03;4.63;;;;;;;;;;5091547;28;21016;-76
2022/08/07 06:55:29;;;;;;;4.53;4.23;;;;;;;;;;5091707;28;20475;-76
2022/08/07 06:57:58;;;;;;;4.97;4.67;;;;;;;;;;5091654;28;20443;-75
2022/08/07 07:00:27;;;;;;;4.70;4.40;;;;;;;;;;5091510;28;20527;-76
2022/08/07 07:02:55;;;;;;;4.77;4.50;;;;;;;;;;5091315;28;20484;-76
2022/08/07 07:05:23;;;;;;;4.73;4.37;;;;;;;;;;5091786;28;20498;-75
2022/08/07 07:07:50;;;;;;;4.40;4.13;;;;;;;;;;5091547;28;20447;-75
2022/08/07 07:10:18;;;;;;;4.37;4.07;;;;;;;;;;5091678;28;20448;-75
2022/08/07 07:12:48;;;;;;;5.10;4.00;;;;;;;;;;5091966;28;20432;-75
2022/08/07 07:15:18;;;;;;;4.50;4.20;;;;;;;;;;5092109;28;20463;-75
2022/08/07 07:17:50;;;;;;;4.70;4.30;;;;;;;;;;5092433;28;20474;-76
2022/08/07 07:20:19;;;;;;;4.60;4.33;;;;;;;;;;5092218;28;20439;-75
2022/08/07 07:22:46;;;;;;;5.17;4.20;;;;;;;;;;5098444;28;20871;-76
2022/08/07 07:25:14;;;;;;;4.87;4.47;;;;;;;;;;5100704;28;20474;-76
2022/08/07 07:27:43;;;;;;;4.03;3.73;;;;;;;;;;5102305;28;20443;-76
2022/08/07 07:30:12;;;;;;;3.60;3.50;;;;;;;;;;5094359;28;20505;-76
2022/08/07 07:32:39;;;;;;;4.53;4.33;;;;;;;;;;5091213;28;20447;-76
2022/08/07 07:35:10;;;;;;;6.37;5.93;;;;;;;;;;5091804;28;20467;-77
2022/08/07 07:37:38;;;;;;;3.00;2.80;;;;;;;;;;5091360;28;20444;-76
2022/08/07 07:40:07;;;;;;;5.37;3.30;;;;;;;;;;5091147;28;20493;-75
2022/08/07 07:42:35;;;;;;;2.77;2.57;;;;;;;;;;5090580;28;20564;-76
2022/08/07 07:45:02;;;;;;;3.10;2.87;;;;;;;;;;5091069;28;20525;-78
2022/08/07 07:47:29;;;;;;;3.03;2.73;;;;;;;;;;5091204;28;20448;-77
2022/08/07 07:49:57;;;;;;;5.77;3.20;;;;;;;;;;5091030;28;20466;-76
2022/08/07 07:52:26;;;;;;;8.77;8.07;;;;;;;;;;5090523;28;21029;-77
2022/08/07 07:54:54;;;;;;;4.03;3.73;;;;;;;;;;5090804;28;20472;-76
2022/08/07 07:57:23;;;;;;;3.33;3.13;;;;;;;;;;5090889;28;20477;-76
2022/08/07 07:59:51;;;;;;;2.73;2.53;;;;;;;;;;5092658;28;20471;-76
2022/08/07 08:02:18;;;;;;;2.80;2.60;;;;;;;;;;5094817;28;20567;-75
2022/08/07 08:04:46;;;;;;;2.60;2.40;;;;;;;;;;5093857;28;20475;-77
2022/08/07 08:07:13;;;;;;;2.80;2.60;;;;;;;;;;5091741;28;20572;-75
2022/08/07 08:09:42;;;;;;;2.50;2.40;;;;;;;;;;5091464;28;20448;-76
2022/08/07 08:12:10;;;;;;;2.33;2.13;;;;;;;;;;5092079;28;20436;-75
2022/08/07 08:14:37;;;;;;;2.20;2.10;;;;;;;;;;5091212;28;20462;-75
2022/08/07 08:17:05;;;;;;;2.33;1.70;;;;;;;;;;5091034;28;20496;-76
2022/08/07 08:19:33;;;;;;;2.10;2.00;;;;;;;;;;5095492;28;20464;-75
2022/08/07 08:27:36;;;;;;;2.00;1.77;;;;;;;;;;5133725;28;20429;-75
2022/08/07 08:30:04;;;;;;;1.90;1.80;;;;;;;;;;5133268;28;20446;-75
2022/08/07 08:32:32;;;;;;;1.60;1.60;;;;;;;;;;5133537;28;20439;-75
2022/08/07 08:35:00;;;;;;;1.80;1.70;;;;;;;;;;5133908;28;20451;-74
2022/08/07 08:37:28;;;;;;;1.90;1.80;;;;;;;;;;5133751;28;20435;-76
2022/08/07 08:39:58;;;;;;;1.63;1.53;;;;;;;;;;5132672;28;20465;-76
2022/08/07 08:42:26;;;;;;;3.20;2.90;;;;;;;;;;5126239;28;20467;-76
2022/08/07 08:44:57;;;;;;;3.80;1.77;;;;;;;;;;5124054;28;20462;-75
2022/08/07 08:47:26;;;;;;;1.83;1.73;;;;;;;;;;5119914;28;20447;-75
2022/08/07 08:49:59;;;;;;;1.77;1.67;;;;;;;;;;5110603;28;20987;-76
2022/08/07 08:52:30;;;;;;;1.60;1.43;;;;;;;;;;5110841;28;20470;-76
2022/08/07 08:55:00;;;;;;;2.07;1.43;;;;;;;;;;5110622;28;20463;-76
2022/08/07 08:57:29;;;;;;;1.40;1.40;;;;;;;;;;5110644;28;20474;-75
2022/08/07 09:00:00;;;;;;;1.40;1.17;;;;;;;;;;5110540;28;20446;-76
2022/08/07 09:02:32;;;;;;;3.20;1.80;;;;;;;;;;5110237;28;20475;-76
2022/08/07 09:05:04;;;;;;;2.80;2.60;;;;;;;;;;5110226;28;20989;-75
2022/08/07 09:07:33;;;;;;;1.50;1.40;;;;;;;;;;5108783;28;20901;-75
2022/08/07 09:10:06;;;;;;;2.20;1.30;;;;;;;;;;5085937;28;20709;-74
2022/08/07 09:12:41;;;;;;;1.73;1.47;;;;;;;;;;5088780;28;20467;-77
2022/08/07 09:15:16;;;;;;;1.47;1.37;;;;;;;;;;5077296;28;20471;-75
2022/08/07 09:17:47;;;;;;;1.50;1.40;;;;;;;;;;5093620;28;20447;-76
2022/08/07 09:20:24;;;;;;;1.47;1.37;;;;;;;;;;5093800;28;20511;-76
2022/08/07 09:22:56;;;;;;;1.00;1.00;;;;;;;;;;5111428;28;20474;-75
2022/08/07 09:25:27;;;;;;;2.70;1.33;;;;;;;;;;5114064;28;20464;-75
2022/08/07 09:28:00;;;;;;;1.20;1.20;;;;;;;;;;5114191;28;20453;-77
2022/08/07 09:30:30;;;;;;;1.40;1.33;;;;;;;;;;5113949;28;20443;-77
2022/08/07 09:33:01;;;;;;;3.20;1.17;;;;;;;;;;5113930;28;20439;-75
2022/08/07 09:35:40;;;;;;;0.90;0.90;;;;;;;;;;5113942;28;21130;-76
2022/08/07 09:38:13;;;;;;;1.10;1.00;;;;;;;;;;5113740;28;20987;-75
2022/08/07 09:40:52;;;;;;;1.20;1.10;;;;;;;;;;5113861;28;20468;-75
2022/08/07 09:43:34;;;;;;;1.17;1.13;;;;;;;;;;5113605;28;20485;-75
2022/08/07 09:46:09;;;;;;;1.10;1.10;;;;;;;;;;5113955;27;20458;-76
2022/08/07 09:48:42;;;;;;;1.00;1.00;;;;;;;;;;5113377;28;20441;-76
2022/08/07 09:51:16;;;;;;;1.40;1.30;;;;;;;;;;5116195;28;20488;-77
2022/08/07 09:53:43;;;;;;;3.43;1.10;;;;;;;;;;5113615;28;20514;-75
2022/08/07 09:56:40;;;;;;;1.00;1.00;;;;;;;;;;5113338;28;20452;-76
2022/08/07 09:59:24;;;;;;;1.03;1.03;;;;;;;;;;5050066;28;20437;-76
2022/08/07 10:01:59;;;;;;;1.30;1.20;;;;;;;;;;5106040;28;20446;-76
2022/08/07 10:04:31;;;;;;;1.00;1.00;;;;;;;;;;5112697;28;20482;-77
2022/08/07 10:07:02;;;;;;;1.20;1.20;;;;;;;;;;5113432;28;20447;-76
2022/08/07 10:09:47;;;;;;;1.43;0.90;;;;;;;;;;5111411;28;20442;-74
2022/08/07 10:12:20;;;;;;;0.80;0.80;;;;;;;;;;5093022;28;20444;-75
2022/08/07 10:15:01;;;;;;;1.13;1.00;;;;;;;;;;5093022;28;20499;-76
2022/08/07 10:17:41;;;;;;;1.40;0.97;;;;;;;;;;5093215;28;20465;-76
2022/08/07 10:20:16;;;;;;;1.80;1.10;;;;;;;;;;5091374;28;20443;-74
2022/08/07 10:22:51;;;;;;;0.90;0.90;;;;;;;;;;5092172;28;20891;-77
2022/08/07 10:25:29;;;;;;;1.10;1.00;;;;;;;;;;5092719;28;20463;-76
2022/08/07 10:28:22;;;;;;;0.73;0.70;;;;;;;;;;5092744;28;20633;-77
2022/08/07 10:30:54;;;;;;;0.80;0.80;;;;;;;;;;5077641;28;20452;-76
2022/08/07 10:33:33;;;;;;;0.93;0.90;;;;;;;;;;5092322;28;20494;-75
2022/08/07 10:36:05;;;;;;;1.03;1.03;;;;;;;;;;5092568;28;20464;-76
2022/08/07 10:38:44;;;;;;;0.63;0.63;;;;;;;;;;5092618;28;20452;-77
2022/08/07 10:41:15;;;;;;;1.27;1.00;;;;;;;;;;5092673;28;20431;-75
2022/08/07 10:43:44;;;;;;;1.10;1.00;;;;;;;;;;5092033;28;21178;-75
2022/08/07 10:46:19;;;;;;;0.90;0.90;;;;;;;;;;5092526;28;20444;-76
2022/08/07 10:48:50;;;;;;;2.30;0.87;;;;;;;;;;5092436;28;20530;-75
2022/08/07 10:51:18;;;;;;;0.83;0.83;;;;;;;;;;5092371;28;20440;-77
2022/08/07 10:53:50;;;;;;;1.40;1.30;;;;;;;;;;5091819;28;20444;-75
2022/08/07 10:56:23;;;;;;;1.17;1.10;;;;;;;;;;5092311;28;20520;-75
2022/08/07 10:59:00;;;;;;;1.87;1.00;;;;;;;;;;5092518;28;20531;-75
2022/08/07 11:01:34;;;;;;;1.20;1.10;;;;;;;;;;5092356;28;20439;-76
2022/08/07 11:04:07;;;;;;;0.90;0.90;;;;;;;;;;5091742;28;20563;-75
2022/08/07 11:06:39;;;;;;;1.10;0.90;;;;;;;;;;5092915;28;20470;-75
2022/08/07 11:09:08;;;;;;;1.07;0.97;;;;;;;;;;5092933;28;20984;-76
2022/08/07 11:11:37;;;;;;;1.23;0.80;;;;;;;;;;5074387;28;20546;-76
2022/08/07 11:14:07;;;;;;;0.90;0.90;;;;;;;;;;5071972;28;20552;-76
2022/08/07 11:16:37;;;;;;;1.50;1.30;;;;;;;;;;5071442;28;20941;-75
2022/08/07 11:19:06;;;;;;;0.90;0.90;;;;;;;;;;5071628;28;20452;-76
2022/08/07 11:21:37;;;;;;;0.93;0.90;;;;;;;;;;5071481;28;20440;-75
2022/08/07 11:24:08;;;;;;;1.10;1.10;;;;;;;;;;5071086;28;20561;-76
2022/08/07 11:26:38;;;;;;;0.70;0.70;;;;;;;;;;5071366;28;20852;-77
2022/08/07 11:29:07;;;;;;;1.00;1.00;;;;;;;;;;5071434;28;20440;-75
2022/08/07 11:31:39;;;;;;;1.10;1.00;;;;;;;;;;5072056;28;20535;-75
2022/08/07 11:34:09;;;;;;;1.03;0.90;;;;;;;;;;5072018;28;20452;-76
2022/08/07 11:36:41;;;;;;;0.77;0.77;;;;;;;;;;5071155;28;20486;-75
2022/08/07 11:39:17;;;;;;;1.07;1.03;;;;;;;;;;5070942;28;20483;-76
2022/08/07 11:41:47;;;;;;;1.83;1.30;;;;;;;;;;5071407;28;20669;-77
2022/08/07 11:44:18;;;;;;;1.33;0.97;;;;;;;;;;5070436;28;20473;-76
2022/08/07 11:46:53;;;;;;;2.60;1.30;;;;;;;;;;5071225;28;20444;-75
2022/08/07 11:49:33;;;;;;;1.00;1.00;;;;;;;;;;5070917;28;20505;-76
2022/08/07 11:52:09;;;;;;;2.20;0.97;;;;;;;;;;5070497;28;20862;-75
2022/08/07 11:54:46;;;;;;;1.83;0.80;;;;;;;;;;5070457;28;20456;-75
2022/08/07 11:57:17;;;;;;;1.10;0.70;;;;;;;;;;5070744;28;20785;-75
2022/08/07 11:59:53;;;;;;;1.10;0.90;;;;;;;;;;5070406;28;20455;-75
2022/08/07 12:02:31;;;;;;;0.80;0.80;;;;;;;;;;5070417;28;20451;-76
2022/08/07 12:05:05;;;;;;;1.00;1.00;;;;;;;;;;5070434;28;20487;-75
2022/08/07 12:07:35;;;;;;;0.70;0.70;;;;;;;;;;5070355;28;20448;-75
2022/08/07 12:10:04;;;;;;;1.37;0.90;;;;;;;;;;5076612;28;20462;-77
2022/08/07 12:12:36;;;;;;;1.47;0.80;;;;;;;;;;5090473;28;20521;-75
2022/08/07 12:15:05;;;;;;;0.80;0.80;;;;;;;;;;5090233;28;20551;-75
2022/08/07 12:17:40;;;;;;;1.37;0.93;;;;;;;;;;5090675;28;20505;-76
2022/08/07 12:20:10;;;;;;;1.93;1.17;;;;;;;;;;5090687;28;20504;-76
2022/08/07 12:22:41;;;;;;;1.37;1.27;;;;;;;;;;5090080;28;20452;-76
2022/08/07 12:27:59;;;;;;;1.70;0.90;;;;;;;;;;5090677;28;20426;-76
2022/08/07 12:30:28;;;;;;;0.90;0.90;;;;;;;;;;5090420;28;20464;-74
2022/08/07 12:33:00;;;;;;;2.30;0.80;;;;;;;;;;5089910;28;20500;-75
2022/08/07 12:35:29;;;;;;;0.90;0.90;;;;;;;;;;5090329;28;20999;-76
2022/08/07 12:37:57;;;;;;;1.03;1.00;;;;;;;;;;5090185;28;20444;-76
2022/08/07 12:40:31;;;;;;;1.60;1.50;;;;;;;;;;5090402;28;20509;-76
2022/08/07 12:42:59;;;;;;;1.63;1.53;;;;;;;;;;5089165;28;20451;-76
2022/08/07 12:45:27;;;;;;;0.70;0.70;;;;;;;;;;5090101;28;20556;-77
2022/08/07 12:47:56;;;;;;;1.90;1.13;;;;;;;;;;5090504;28;20873;-76
2022/08/07 12:50:30;;;;;;;1.03;0.80;;;;;;;;;;5090088;28;20537;-76
2022/08/07 12:53:02;;;;;;;1.50;1.50;;;;;;;;;;5089920;28;20972;-75
2022/08/07 12:55:32;;;;;;;1.57;1.57;;;;;;;;;;5089852;28;20570;-77
2022/08/07 12:58:00;;;;;;;4.07;3.77;;;;;;;;;;5090124;28;20447;-77
2022/08/07 13:00:29;;;;;;;1.47;1.47;;;;;;;;;;5090147;28;20980;-77
2022/08/07 13:03:03;;;;;;;1.27;1.17;;;;;;;;;;5089305;28;20443;-76
2022/08/07 13:05:39;;;;;;;1.00;1.00;;;;;;;;;;5089916;28;20675;-76
2022/08/07 13:08:24;;;;;;;1.10;1.10;;;;;;;;;;5089820;28;20942;-76
2022/08/07 13:10:59;;;;;;;1.27;1.20;;;;;;;;;;5066502;28;20440;-76
2022/08/07 13:13:29;;;;;;;1.20;1.10;;;;;;;;;;5068953;28;20452;-75
2022/08/07 13:15:59;;;;;;;1.30;1.03;;;;;;;;;;5069169;28;20991;-76
2022/08/07 13:18:31;;;;;;;0.70;0.70;;;;;;;;;;5069737;28;20856;-77
2022/08/07 13:21:02;;;;;;;1.20;1.10;;;;;;;;;;5069287;28;20433;-77
2022/08/07 13:23:32;;;;;;;5.50;1.33;;;;;;;;;;5069106;28;20429;-76
2022/08/07 13:26:02;;;;;;;1.00;1.00;;;;;;;;;;5069205;28;20925;-75
2022/08/07 13:28:31;;;;;;;0.80;0.80;;;;;;;;;;5069453;28;20449;-75
2022/08/07 13:31:01;;;;;;;1.17;1.10;;;;;;;;;;5069380;28;20939;-76
2022/08/07 13:33:34;;;;;;;1.23;0.90;;;;;;;;;;5069128;28;21164;-75
2022/08/07 13:36:06;;;;;;;2.30;1.10;;;;;;;;;;5069276;28;20591;-76
2022/08/07 13:38:37;;;;;;;1.13;1.00;;;;;;;;;;5069053;28;20448;-76
2022/08/07 13:41:06;;;;;;;0.97;0.93;;;;;;;;;;5068992;28;20445;-76
2022/08/07 13:43:35;;;;;;;1.20;1.10;;;;;;;;;;5068973;28;20498;-75
2022/08/07 13:46:03;;;;;;;1.60;0.77;;;;;;;;;;5068809;28;20493;-76
2022/08/07 13:48:30;;;;;;;1.07;1.00;;;;;;;;;;5069116;28;20455;-75
2022/08/07 13:50:58;;;;;;;0.80;0.80;;;;;;;;;;5069223;28;20449;-75
2022/08/07 13:53:30;;;;;;;1.70;0.80;;;;;;;;;;5070556;28;20440;-75
2022/08/07 13:55:59;;;;;;;1.20;0.93;;;;;;;;;;5072677;28;20468;-77
2022/08/07 14:01:14;;;;;;;2.93;0.87;;;;;;;;;;5072627;28;20495;-75
2022/08/07 14:03:41;;;;;;;1.20;1.10;;;;;;;;;;5072132;28;20452;-75
2022/08/07 14:06:09;;;;;;;1.03;1.03;;;;;;;;;;5072723;28;20491;-75
2022/08/07 14:08:45;;;;;;;1.13;1.13;;;;;;;;;;5072463;28;20437;-76
2022/08/07 14:11:13;;;;;;;1.00;1.00;;;;;;;;;;5088282;28;20558;-75
2022/08/07 14:13:41;;;;;;;3.10;1.10;;;;;;;;;;5092226;28;20865;-75
2022/08/07 14:16:13;;;;;;;0.80;0.80;;;;;;;;;;5092902;28;20432;-76
2022/08/07 14:18:41;;;;;;;0.80;0.80;;;;;;;;;;5094317;28;20914;-76
2022/08/07 14:21:10;;;;;;;1.10;1.10;;;;;;;;;;5092728;28;20546;-76
2022/08/07 14:23:39;;;;;;;0.90;0.90;;;;;;;;;;5092141;28;21006;-75
2022/08/07 14:26:10;;;;;;;1.20;1.10;;;;;;;;;;5092424;28;20460;-76
2022/08/07 14:28:41;;;;;;;1.07;0.90;;;;;;;;;;5092408;28;20435;-75
2022/08/07 14:31:08;;;;;;;1.00;0.90;;;;;;;;;;5092728;28;20440;-74
2022/08/07 14:33:35;;;;;;;1.00;1.00;;;;;;;;;;5094249;28;20497;-75
2022/08/07 14:36:03;;;;;;;1.00;0.90;;;;;;;;;;5092370;28;20865;-75
2022/08/07 14:38:31;;;;;;;1.70;1.00;;;;;;;;;;5093110;28;20439;-76
2022/08/07 14:41:01;;;;;;;1.40;1.30;;;;;;;;;;5092710;28;20440;-76
2022/08/07 14:43:29;;;;;;;0.93;0.90;;;;;;;;;;5091998;28;20469;-75
2022/08/07 14:45:57;;;;;;;1.93;1.07;;;;;;;;;;5092306;28;20487;-76
2022/08/07 14:48:27;;;;;;;1.00;1.00;;;;;;;;;;5091983;28;20452;-76
2022/08/07 14:50:54;;;;;;;0.70;0.70;;;;;;;;;;5092356;28;20501;-76
2022/08/07 14:53:22;;;;;;;1.10;1.10;;;;;;;;;;5094908;28;20481;-76
2022/08/07 14:55:49;;;;;;;1.17;1.10;;;;;;;;;;5095524;28;20452;-77
2022/08/07 14:58:18;;;;;;;2.57;1.00;;;;;;;;;;5092639;28;20477;-76
2022/08/07 15:00:49;;;;;;;1.10;1.10;;;;;;;;;;5091966;28;20444;-75
2022/08/07 15:03:17;;;;;;;1.33;1.10;;;;;;;;;;5091543;28;20459;-76
2022/08/07 15:05:44;;;;;;;0.97;0.87;;;;;;;;;;5090634;28;20484;-75
2022/08/07 15:08:12;;;;;;;0.80;0.80;;;;;;;;;;5091641;28;20892;-76